createdAt,value
2023-04-18T00:01:55.844Z,101183.66
2023-04-18T00:04:22.696Z,101175.84
2023-04-18T00:06:49.934Z,101174.13
2023-04-18T00:09:16.653Z,101157.03
2023-04-18T00:11:43.591Z,101144.81
2023-04-18T00:14:10.564Z,101152.16
2023-04-18T00:16:38.198Z,101145.09
2023-04-18T00:19:05.369Z,101136.56
2023-04-18T00:21:32.134Z,101137.38
2023-04-18T00:24:00.094Z,101140.38
2023-04-18T00:26:27.722Z,101131.53
2023-04-18T00:28:55.672Z,101130.81
2023-04-18T00:31:22.292Z,101126.19
2023-04-18T00:33:48.964Z,101129.19
2023-04-18T00:36:15.863Z,101129.69
2023-04-18T00:38:42.510Z,101141.50
2023-04-18T00:41:09.145Z,101127.28
2023-04-18T00:43:37.164Z,101114.88
2023-04-18T00:46:04.968Z,101104.50
2023-04-18T00:48:33.571Z,101098.47
2023-04-18T00:51:02.388Z,101105.47
2023-04-18T00:53:29.473Z,101105.75
2023-04-18T00:55:57.439Z,101105.72
2023-04-18T00:58:25.868Z,101123.34
2023-04-18T01:00:54.039Z,101125.09
2023-04-18T01:03:22.929Z,101137.69
2023-04-18T01:05:49.982Z,101141.97
2023-04-18T01:08:18.772Z,101136.13
2023-04-18T01:10:45.568Z,101128.59
2023-04-18T01:13:20.636Z,101124.47
2023-04-18T01:15:49.309Z,101106.50
2023-04-18T01:18:16.978Z,101105.13
2023-04-18T01:20:48.308Z,101097.50
2023-04-18T01:23:17.691Z,101102.03
2023-04-18T01:25:46.489Z,101098.78
2023-04-18T01:28:14.919Z,101103.78
2023-04-18T01:30:42.854Z,101088.00
2023-04-18T01:33:09.501Z,101094.25
2023-04-18T01:35:36.401Z,101113.56
2023-04-18T01:38:03.413Z,101111.25
2023-04-18T01:40:30.353Z,101098.66
2023-04-18T01:42:57.102Z,101109.81
2023-04-18T01:45:23.905Z,101103.28
2023-04-18T01:47:52.030Z,101077.69
2023-04-18T01:50:18.784Z,101071.56
2023-04-18T01:52:46.725Z,101084.13
2023-04-18T01:55:13.478Z,101081.66
2023-04-18T01:57:41.535Z,101079.31
2023-04-18T02:00:08.626Z,101091.97
2023-04-18T02:02:35.774Z,101069.22
2023-04-18T02:05:02.560Z,101082.22
2023-04-18T02:07:29.216Z,101070.38
2023-04-18T02:09:55.910Z,101075.25
2023-04-18T02:12:22.531Z,101069.31
2023-04-18T02:14:53.028Z,101073.63
2023-04-18T02:17:23.755Z,101070.53
2023-04-18T02:19:53.291Z,101069.06
2023-04-18T02:22:20.050Z,101074.84
2023-04-18T02:24:47.839Z,101086.41
2023-04-18T02:27:15.885Z,101068.91
2023-04-18T02:29:42.467Z,101075.56
2023-04-18T02:32:10.599Z,101082.09
2023-04-18T02:34:37.320Z,101073.84
2023-04-18T02:37:05.644Z,101060.81
2023-04-18T02:39:32.550Z,101056.16
2023-04-18T02:42:00.552Z,101050.91
2023-04-18T02:44:28.430Z,101066.00
2023-04-18T02:46:55.237Z,101047.16
2023-04-18T02:49:22.364Z,101054.09
2023-04-18T02:51:48.995Z,101050.53
2023-04-18T02:54:16.165Z,101040.13
2023-04-18T02:56:43.285Z,101041.44
2023-04-18T02:59:11.321Z,101042.97
2023-04-18T03:01:38.015Z,101051.94
2023-04-18T03:04:04.980Z,101052.13
2023-04-18T03:06:31.896Z,101051.81
2023-04-18T03:08:58.725Z,101062.72
2023-04-18T03:11:26.834Z,101060.78
2023-04-18T03:13:55.066Z,101057.38
2023-04-18T03:16:22.297Z,101041.53
2023-04-18T03:18:49.113Z,101024.94
2023-04-18T03:21:15.933Z,101024.03
2023-04-18T03:23:42.541Z,101033.09
2023-04-18T03:26:10.519Z,101036.97
2023-04-18T03:28:37.170Z,101035.59
2023-04-18T03:31:04.045Z,101038.47
2023-04-18T03:33:30.702Z,101030.72
2023-04-18T03:35:57.316Z,101030.72
2023-04-18T03:38:25.215Z,101037.31
2023-04-18T03:40:52.294Z,101040.56
2023-04-18T03:43:21.113Z,101033.59
2023-04-18T03:45:48.202Z,101034.09
2023-04-18T03:48:15.548Z,101035.72
2023-04-18T03:50:42.290Z,101042.22
2023-04-18T03:53:08.951Z,101042.59
2023-04-18T03:55:35.657Z,101060.81
2023-04-18T03:58:02.252Z,101051.41
2023-04-18T04:00:29.448Z,101045.53
2023-04-18T04:02:56.488Z,101049.28
2023-04-18T04:05:23.461Z,101070.47
2023-04-18T04:07:50.125Z,101093.25
2023-04-18T04:10:16.845Z,101100.16
2023-04-18T04:12:43.450Z,101108.13
2023-04-18T04:15:10.778Z,101108.81
2023-04-18T04:17:37.525Z,101105.19
2023-04-18T04:20:05.299Z,101098.69
2023-04-18T04:22:32.796Z,101094.88
2023-04-18T04:25:00.924Z,101093.09
2023-04-18T04:27:28.122Z,101085.06
2023-04-18T04:29:54.765Z,101087.00
2023-04-18T04:32:21.752Z,101089.22
2023-04-18T04:34:49.492Z,101091.91
2023-04-18T04:37:18.745Z,101093.22
2023-04-18T04:39:46.247Z,101093.72
2023-04-18T04:42:13.415Z,101083.88
2023-04-18T04:44:41.739Z,101088.91
2023-04-18T04:47:09.330Z,101086.34
2023-04-18T04:49:35.944Z,101090.84
2023-04-18T04:52:05.880Z,101088.38
2023-04-18T04:54:32.496Z,101095.81
2023-04-18T04:57:00.513Z,101101.16
2023-04-18T04:59:27.100Z,101098.09
2023-04-18T05:01:53.801Z,101097.06
2023-04-18T05:04:20.903Z,101100.66
2023-04-18T05:06:47.668Z,101100.00
2023-04-18T05:09:14.367Z,101091.81
2023-04-18T05:11:42.293Z,101079.56
2023-04-18T05:14:08.976Z,101087.81
2023-04-18T05:16:35.874Z,101086.56
2023-04-18T05:19:02.546Z,101084.53
2023-04-18T05:21:29.467Z,101085.81
2023-04-18T05:23:57.738Z,101087.84
2023-04-18T05:26:24.735Z,101092.78
2023-04-18T05:28:52.750Z,101090.78
2023-04-18T05:31:19.485Z,101084.19
2023-04-18T05:33:46.240Z,101081.72
2023-04-18T05:36:12.941Z,101071.88
2023-04-18T05:38:39.606Z,101069.19
2023-04-18T05:41:06.268Z,101069.78
2023-04-18T05:43:32.980Z,101062.78
2023-04-18T05:45:59.641Z,101065.22
2023-04-18T05:48:27.246Z,101086.22
2023-04-18T05:50:53.891Z,101084.59
2023-04-18T05:53:20.509Z,101086.41
2023-04-18T05:55:49.962Z,101091.56
2023-04-18T05:58:18.022Z,101095.44
2023-04-18T06:00:44.668Z,101101.75
2023-04-18T06:03:11.794Z,101108.34
2023-04-18T06:05:38.826Z,101110.81
2023-04-18T06:08:06.104Z,101119.59
2023-04-18T06:10:33.188Z,101125.94
2023-04-18T06:13:00.964Z,101133.78
2023-04-18T06:15:27.657Z,101130.16
2023-04-18T06:17:54.497Z,101130.69
2023-04-18T06:20:23.157Z,101138.94
2023-04-18T06:22:49.772Z,101138.41
2023-04-18T06:25:16.664Z,101145.09
2023-04-18T06:27:43.301Z,101161.78
2023-04-18T06:30:11.753Z,101164.38
2023-04-18T06:32:39.776Z,101172.56
2023-04-18T06:35:06.831Z,101186.22
2023-04-18T06:37:33.662Z,101204.72
2023-04-18T06:40:00.294Z,101209.44
2023-04-18T06:42:27.183Z,101227.88
2023-04-18T06:44:55.130Z,101252.25
2023-04-18T06:47:23.207Z,101285.06
2023-04-18T06:49:50.331Z,101335.31
2023-04-18T06:52:16.966Z,101394.50
2023-04-18T06:54:43.588Z,101414.22
2023-04-18T06:57:11.957Z,101439.03
2023-04-18T06:59:39.933Z,101494.88
2023-04-18T07:02:07.137Z,101504.88
2023-04-18T07:04:34.165Z,101518.13
2023-04-18T07:07:02.022Z,101557.72
2023-04-18T07:09:28.643Z,101572.56
2023-04-18T07:11:55.329Z,101575.72
2023-04-18T07:14:25.356Z,101590.34
2023-04-18T07:16:52.164Z,101589.78
2023-04-18T07:19:18.967Z,101605.75
2023-04-18T07:21:46.123Z,101632.31
2023-04-18T07:24:13.356Z,101601.91
2023-04-18T07:26:40.958Z,101630.41
2023-04-18T07:29:07.639Z,101622.94
2023-04-18T07:31:36.241Z,101630.34
2023-04-18T07:34:04.371Z,101635.47
2023-04-18T07:36:31.408Z,101630.38
2023-04-18T07:38:58.092Z,101643.53
2023-04-18T07:41:24.699Z,101635.97
2023-04-18T07:43:51.346Z,101643.03
2023-04-18T07:46:18.161Z,101638.88
2023-04-18T07:48:45.262Z,101638.72
2023-04-18T07:51:13.441Z,101646.03
2023-04-18T07:53:41.213Z,101643.72
2023-04-18T07:56:09.053Z,101642.47
2023-04-18T07:58:37.418Z,101636.75
2023-04-18T08:01:04.328Z,101644.59
2023-04-18T08:03:31.087Z,101640.78
2023-04-18T08:05:57.757Z,101648.63
2023-04-18T08:08:24.380Z,101642.72
2023-04-18T08:10:51.398Z,101649.69
2023-04-18T08:13:19.311Z,101647.16
2023-04-18T08:15:46.839Z,101650.28
2023-04-18T08:18:13.620Z,101650.47
2023-04-18T08:20:41.043Z,101652.44
2023-04-18T08:23:11.297Z,101640.25
2023-04-18T08:25:39.585Z,101648.25
2023-04-18T08:28:06.523Z,101644.84
2023-04-18T08:30:33.222Z,101643.44
2023-04-18T08:33:00.918Z,101647.25
2023-04-18T08:35:27.587Z,101642.44
2023-04-18T08:37:54.289Z,101643.66
2023-04-18T08:40:22.183Z,101637.09
2023-04-18T08:42:51.975Z,101638.34
2023-04-18T08:45:20.010Z,101640.25
2023-04-18T08:47:47.831Z,101650.97
2023-04-18T08:50:14.629Z,101640.88
2023-04-18T08:52:50.148Z,101645.44
2023-04-18T08:55:18.201Z,101640.38
2023-04-18T08:57:44.931Z,101640.63
2023-04-18T09:00:12.150Z,101642.34
2023-04-18T09:02:45.033Z,101639.06
2023-04-18T09:05:12.078Z,101636.00
2023-04-18T09:07:38.719Z,101639.59
2023-04-18T09:10:05.675Z,101634.63
2023-04-18T09:12:32.744Z,101639.06
2023-04-18T09:15:16.499Z,101638.25
2023-04-18T09:17:51.351Z,101641.91
2023-04-18T09:20:34.987Z,101632.09
2023-04-18T09:23:04.356Z,101636.78
2023-04-18T09:25:42.136Z,101642.50
2023-04-18T09:28:24.331Z,101629.41
2023-04-18T09:30:53.726Z,101630.00
2023-04-18T09:33:33.976Z,101629.31
2023-04-18T09:36:21.327Z,101624.53
2023-04-18T09:38:55.961Z,101615.81
2023-04-18T09:41:23.634Z,101617.44
2023-04-18T09:43:52.089Z,101624.81
2023-04-18T09:46:18.894Z,101628.41
2023-04-18T09:48:47.345Z,101624.06
2023-04-18T09:51:18.817Z,101618.81
2023-04-18T09:53:47.455Z,101610.94
2023-04-18T09:56:26.116Z,101609.84
2023-04-18T09:59:03.652Z,101613.19
2023-04-18T10:01:31.025Z,101615.38
2023-04-18T10:04:01.336Z,101612.63
2023-04-18T10:06:29.125Z,101605.88
2023-04-18T10:08:56.384Z,101609.69
2023-04-18T10:11:25.642Z,101606.69
2023-04-18T10:13:57.522Z,101605.88
2023-04-18T10:16:24.757Z,101600.69
2023-04-18T10:18:51.927Z,101604.53
2023-04-18T10:21:18.560Z,101598.22
2023-04-18T10:23:48.923Z,101597.41
2023-04-18T10:26:16.106Z,101605.88
2023-04-18T10:29:00.165Z,101585.94
2023-04-18T10:31:28.580Z,101589.19
2023-04-18T10:36:29.010Z,101596.28
2023-04-18T10:39:01.997Z,101593.03
2023-04-18T10:41:30.958Z,101586.47
2023-04-18T10:44:15.833Z,101593.84
2023-04-18T10:47:08.852Z,101599.59
2023-04-18T10:49:36.864Z,101589.19
2023-04-18T10:52:06.079Z,101582.97
2023-04-18T10:54:56.456Z,101587.56
2023-04-18T10:57:25.064Z,101583.44
2023-04-18T10:59:52.935Z,101580.69
2023-04-18T11:02:28.656Z,101579.81
2023-04-18T11:05:04.848Z,101586.09
2023-04-18T11:07:45.064Z,101579.75
2023-04-18T11:10:13.109Z,101577.06
2023-04-18T11:12:41.156Z,101577.00
2023-04-18T11:15:22.595Z,101578.94
2023-04-18T11:18:03.112Z,101576.53
2023-04-18T11:20:38.558Z,101580.91
2023-04-18T11:23:21.020Z,101585.34
2023-04-18T11:25:51.469Z,101568.28
2023-04-18T11:28:22.241Z,101571.53
2023-04-18T11:30:49.906Z,101574.19
2023-04-18T11:33:18.040Z,101583.59
2023-04-18T11:35:46.195Z,101578.41
2023-04-18T11:38:15.875Z,101574.81
2023-04-18T11:40:49.396Z,101564.50
2023-04-18T11:43:21.516Z,101562.19
2023-04-18T11:45:59.125Z,101568.25
2023-04-18T11:48:39.445Z,101559.44
2023-04-18T11:51:07.558Z,101561.91
2023-04-18T11:53:38.807Z,101561.03
2023-04-18T11:56:05.951Z,101561.53
2023-04-18T11:58:36.342Z,101558.06
2023-04-18T12:01:16.967Z,101553.91
2023-04-18T12:03:59.238Z,101558.03
2023-04-18T12:06:28.356Z,101562.34
2023-04-18T12:09:01.127Z,101551.16
2023-04-18T12:11:27.797Z,101560.19
2023-04-18T12:13:56.894Z,101550.31
2023-04-18T12:16:29.324Z,101549.25
2023-04-18T12:19:02.069Z,101546.19
2023-04-18T12:21:30.747Z,101543.81
2023-04-18T12:23:58.598Z,101554.75
2023-04-18T12:26:26.852Z,101554.91
2023-04-18T12:28:54.107Z,101550.25
2023-04-18T12:31:22.408Z,101545.78
2023-04-18T12:33:51.704Z,101541.72
2023-04-18T12:36:18.380Z,101534.59
2023-04-18T12:38:46.913Z,101535.25
2023-04-18T12:41:13.513Z,101549.50
2023-04-18T12:43:40.231Z,101557.03
2023-04-18T12:46:06.868Z,101542.28
2023-04-18T12:48:35.985Z,101544.56
2023-04-18T12:51:02.584Z,101547.59
2023-04-18T12:53:29.384Z,101537.78
2023-04-18T12:55:56.025Z,101547.09
2023-04-18T12:58:22.957Z,101543.69
2023-04-18T13:00:49.686Z,101545.19
2023-04-18T13:03:16.693Z,101542.16
2023-04-18T13:05:44.744Z,101543.50
2023-04-18T13:08:17.228Z,101538.28
2023-04-18T13:10:46.732Z,101542.19
2023-04-18T13:13:14.898Z,101532.19
2023-04-18T13:15:41.576Z,101549.78
2023-04-18T13:18:09.392Z,101541.19
2023-04-18T13:20:38.065Z,101542.63
2023-04-18T13:23:05.174Z,101533.81
2023-04-18T13:25:31.897Z,101534.81
2023-04-18T13:27:58.838Z,101530.59
2023-04-18T13:30:25.576Z,101531.13
2023-04-18T13:32:53.657Z,101523.69
2023-04-18T13:35:20.435Z,101518.34
2023-04-18T13:37:48.413Z,101538.16
2023-04-18T13:40:15.740Z,101530.00
2023-04-18T13:42:43.186Z,101527.88
2023-04-18T13:45:10.242Z,101513.13
2023-04-18T13:47:37.796Z,101515.91
2023-04-18T13:50:06.901Z,101522.78
2023-04-18T13:52:33.514Z,101514.25
2023-04-18T13:55:00.164Z,101510.44
2023-04-18T13:57:28.429Z,101514.25
2023-04-18T13:59:55.047Z,101522.25
2023-04-18T14:02:21.763Z,101506.84
2023-04-18T14:04:49.921Z,101510.69
2023-04-18T14:07:16.625Z,101508.47
2023-04-18T14:09:44.389Z,101521.69
2023-04-18T14:12:11.009Z,101506.72
2023-04-18T14:14:37.638Z,101515.13
2023-04-18T14:17:04.229Z,101526.38
2023-04-18T14:19:30.998Z,101518.00
2023-04-18T14:21:57.666Z,101504.78
2023-04-18T14:24:24.272Z,101505.31
2023-04-18T14:26:50.888Z,101514.78
2023-04-18T14:29:17.550Z,101515.09
2023-04-18T14:31:44.286Z,101510.44
2023-04-18T14:34:10.950Z,101493.53
2023-04-18T14:36:38.637Z,101499.66
2023-04-18T14:39:05.581Z,101496.69
2023-04-18T14:41:33.708Z,101496.16
2023-04-18T14:44:00.460Z,101488.91
2023-04-18T14:46:29.410Z,101485.47
2023-04-18T14:48:59.105Z,101482.84
2023-04-18T14:51:27.673Z,101484.88
2023-04-18T14:53:54.422Z,101483.66
2023-04-18T14:56:22.118Z,101479.00
2023-04-18T14:58:50.025Z,101479.59
2023-04-18T15:01:19.682Z,101480.31
2023-04-18T15:03:46.545Z,101475.50
2023-04-18T15:06:13.319Z,101480.81
2023-04-18T15:08:39.989Z,101480.50
2023-04-18T15:11:09.009Z,101489.59
2023-04-18T15:13:37.586Z,101485.69
2023-04-18T15:16:04.363Z,101481.22
2023-04-18T15:18:31.047Z,101495.53
2023-04-18T15:21:01.157Z,101494.81
2023-04-18T15:23:27.985Z,101495.47
2023-04-18T15:25:54.897Z,101488.28
2023-04-18T15:28:21.501Z,101491.59
2023-04-18T15:30:48.124Z,101491.00
2023-04-18T15:33:15.755Z,101480.50
2023-04-18T15:35:43.549Z,101499.88
2023-04-18T15:38:10.998Z,101501.63
2023-04-18T15:40:38.091Z,101505.69
2023-04-18T15:43:04.913Z,101508.78
2023-04-18T15:45:31.780Z,101518.34
2023-04-18T15:48:00.003Z,101511.28
2023-04-18T15:50:26.771Z,101511.25
2023-04-18T15:52:53.409Z,101523.59
2023-04-18T15:55:20.046Z,101507.97
2023-04-18T15:57:47.000Z,101512.06
2023-04-18T16:00:16.250Z,101518.19
2023-04-18T16:02:46.558Z,101520.69
2023-04-18T16:05:13.499Z,101516.84
2023-04-18T16:07:41.413Z,101517.38
2023-04-18T16:10:10.524Z,101515.16
2023-04-18T16:12:39.122Z,101520.09
2023-04-18T16:15:07.325Z,101522.41
2023-04-18T16:17:34.478Z,101525.16
2023-04-18T16:20:01.377Z,101529.97
2023-04-18T16:22:28.019Z,101529.81
2023-04-18T16:24:54.827Z,101542.81
2023-04-18T16:27:21.774Z,101532.44
2023-04-18T16:29:49.656Z,101534.31
2023-04-18T16:32:16.310Z,101530.81
2023-04-18T16:34:42.907Z,101532.16
2023-04-18T16:37:10.911Z,101519.84
2023-04-18T16:39:37.700Z,101528.28
2023-04-18T16:42:05.813Z,101547.81
2023-04-18T16:44:34.572Z,101533.28
2023-04-18T16:47:02.542Z,101536.44
2023-04-18T16:49:30.697Z,101538.81
2023-04-18T16:51:57.774Z,101543.47
2023-04-18T16:54:25.720Z,101551.38
2023-04-18T16:56:53.603Z,101549.88
2023-04-18T16:59:20.278Z,101553.53
2023-04-18T17:01:47.006Z,101556.78
2023-04-18T17:04:15.583Z,101567.41
2023-04-18T17:06:43.729Z,101563.75
2023-04-18T17:09:13.398Z,101565.47
2023-04-18T17:11:42.272Z,101571.00
2023-04-18T17:14:10.608Z,101572.75
2023-04-18T17:16:38.684Z,101582.13
2023-04-18T17:19:05.714Z,101586.66
2023-04-18T17:21:34.380Z,101585.13
2023-04-18T17:24:03.773Z,101595.59
2023-04-18T17:26:31.014Z,101598.34
2023-04-18T17:28:57.890Z,101604.97
2023-04-18T17:31:24.599Z,101603.34
2023-04-18T17:33:51.289Z,101605.53
2023-04-18T17:36:18.055Z,101608.31
2023-04-18T17:38:50.055Z,101610.78
2023-04-18T17:41:21.212Z,101618.16
2023-04-18T17:43:51.983Z,101627.41
2023-04-18T17:46:19.800Z,101619.22
2023-04-18T17:48:47.129Z,101633.34
2023-04-18T17:51:17.499Z,101631.94
2023-04-18T17:53:44.113Z,101640.66
2023-04-18T17:56:11.271Z,101644.16
2023-04-18T17:58:37.966Z,101644.16
2023-04-18T18:01:14.372Z,101642.47
2023-04-18T18:03:42.676Z,101650.84
2023-04-18T18:06:11.876Z,101654.59
2023-04-18T18:08:38.833Z,101661.59
2023-04-18T18:11:06.222Z,101654.22
2023-04-18T18:13:33.014Z,101661.78
2023-04-18T18:15:59.777Z,101670.41
2023-04-18T18:18:26.466Z,101673.84
2023-04-18T18:20:53.204Z,101676.09
2023-04-18T18:23:20.938Z,101679.72
2023-04-18T18:25:48.868Z,101686.16
2023-04-18T18:28:15.727Z,101682.19
2023-04-18T18:30:42.911Z,101701.31
2023-04-18T18:33:09.750Z,101686.19
2023-04-18T18:35:36.574Z,101691.94
2023-04-18T18:38:03.222Z,101690.91
2023-04-18T18:40:30.082Z,101710.03
2023-04-18T18:42:57.461Z,101707.44
2023-04-18T18:45:24.251Z,101713.25
2023-04-18T18:47:52.384Z,101715.34
2023-04-18T18:50:19.607Z,101723.78
2023-04-18T18:52:46.262Z,101719.13
2023-04-18T18:55:13.038Z,101723.81
2023-04-18T18:57:39.646Z,101725.31
2023-04-18T19:00:10.934Z,101728.41
2023-04-18T19:02:39.915Z,101732.03
2023-04-18T19:05:07.117Z,101725.94
2023-04-18T19:07:35.188Z,101729.34
2023-04-18T19:10:02.028Z,101728.38
2023-04-18T19:12:29.253Z,101735.19
2023-04-18T19:14:55.904Z,101736.78
2023-04-18T19:17:24.785Z,101738.63
2023-04-18T19:19:53.056Z,101732.63
2023-04-18T19:22:19.648Z,101731.47
2023-04-18T19:24:46.299Z,101735.81
2023-04-18T19:27:13.227Z,101734.81
2023-04-18T19:29:39.830Z,101730.97
2023-04-18T19:32:06.540Z,101739.50
2023-04-18T19:34:34.413Z,101733.25
2023-04-18T19:37:03.652Z,101728.34
2023-04-18T19:39:30.518Z,101734.75
2023-04-18T19:41:57.169Z,101732.25
2023-04-18T19:44:23.785Z,101722.63
2023-04-18T19:46:50.431Z,101728.72
2023-04-18T19:49:17.546Z,101727.56
2023-04-18T19:51:44.797Z,101718.53
2023-04-18T19:54:11.430Z,101714.56
2023-04-18T19:56:38.069Z,101714.97
2023-04-18T19:59:06.023Z,101707.28
2023-04-18T20:01:32.804Z,101718.25
2023-04-18T20:04:00.608Z,101720.69
2023-04-18T20:06:27.731Z,101722.09
2023-04-18T20:08:54.663Z,101724.31
2023-04-18T20:11:22.169Z,101724.94
2023-04-18T20:13:49.022Z,101724.44
2023-04-18T20:16:16.926Z,101715.44
2023-04-18T20:18:44.381Z,101725.31
2023-04-18T20:21:11.251Z,101725.22
2023-04-18T20:23:39.435Z,101720.28
2023-04-18T20:26:08.276Z,101722.53
2023-04-18T20:28:36.253Z,101724.84
2023-04-18T20:31:03.782Z,101728.50
2023-04-18T20:33:30.470Z,101728.22
2023-04-18T20:35:58.845Z,101712.94
2023-04-18T20:38:29.407Z,101717.03
2023-04-18T20:40:58.060Z,101713.00
2023-04-18T20:43:24.903Z,101716.72
2023-04-18T20:45:51.736Z,101714.94
2023-04-18T20:48:18.925Z,101710.25
2023-04-18T20:50:51.323Z,101706.06
2023-04-18T20:53:22.541Z,101696.41
2023-04-18T20:55:49.237Z,101687.94
2023-04-18T20:58:16.310Z,101698.44
2023-04-18T21:00:44.598Z,101679.25
2023-04-18T21:03:15.193Z,101683.81
2023-04-18T21:05:43.684Z,101682.97
2023-04-18T21:08:13.531Z,101679.88
2023-04-18T21:10:40.229Z,101674.53
2023-04-18T21:13:06.946Z,101669.34
2023-04-18T21:15:36.650Z,101661.88
2023-04-18T21:18:03.400Z,101656.94
2023-04-18T21:20:30.073Z,101652.53
2023-04-18T21:22:56.720Z,101652.28
2023-04-18T21:25:23.407Z,101651.34
2023-04-18T21:27:50.946Z,101637.88
2023-04-18T21:30:19.117Z,101628.41
2023-04-18T21:32:47.177Z,101639.97
2023-04-18T21:35:13.869Z,101625.06
2023-04-18T21:37:40.534Z,101631.63
2023-04-18T21:40:08.974Z,101641.56
2023-04-18T21:42:37.575Z,101628.53
2023-04-18T21:45:06.441Z,101627.88
2023-04-18T21:47:34.236Z,101639.50
2023-04-18T21:50:02.416Z,101645.22
2023-04-18T21:52:29.103Z,101638.22
2023-04-18T21:54:56.091Z,101643.59
2023-04-18T21:57:22.730Z,101636.13
2023-04-18T21:59:49.361Z,101621.47
2023-04-18T22:02:16.240Z,101621.66
2023-04-18T22:04:44.253Z,101635.41
2023-04-18T22:07:12.349Z,101638.38
2023-04-18T22:09:39.065Z,101637.41
2023-04-18T22:12:05.777Z,101632.72
2023-04-18T22:14:32.402Z,101628.88
2023-04-18T22:17:02.999Z,101620.63
2023-04-18T22:19:31.286Z,101631.84
2023-04-18T22:21:59.153Z,101618.16
2023-04-18T22:24:26.050Z,101620.97
2023-04-18T22:26:53.104Z,101629.47
2023-04-18T22:29:19.707Z,101628.16
2023-04-18T22:31:46.368Z,101616.31
2023-04-18T22:34:13.176Z,101622.03
2023-04-18T22:36:39.990Z,101613.81
2023-04-18T22:39:07.467Z,101614.16
2023-04-18T22:41:34.124Z,101614.81
2023-04-18T22:44:00.778Z,101608.19
2023-04-18T22:46:28.063Z,101613.50
2023-04-18T22:48:58.226Z,101618.91
2023-04-18T22:51:24.832Z,101620.84
2023-04-18T22:53:51.430Z,101618.47
2023-04-18T22:56:18.093Z,101604.53
2023-04-18T22:58:44.690Z,101612.50
2023-04-18T23:01:11.512Z,101617.53
2023-04-18T23:03:38.389Z,101608.25
2023-04-18T23:06:07.515Z,101617.03
2023-04-18T23:08:34.172Z,101605.34
2023-04-18T23:11:00.829Z,101593.97
2023-04-18T23:13:27.563Z,101600.31
2023-04-18T23:15:54.347Z,101600.72
2023-04-18T23:18:21.004Z,101604.41
2023-04-18T23:20:47.596Z,101603.94
2023-04-18T23:23:14.482Z,101599.81
2023-04-18T23:25:41.122Z,101601.81
2023-04-18T23:28:09.222Z,101598.66
2023-04-18T23:30:37.138Z,101580.44
2023-04-18T23:33:05.090Z,101581.63
2023-04-18T23:35:32.841Z,101573.19
2023-04-18T23:37:59.495Z,101575.16
2023-04-18T23:40:26.131Z,101572.31
2023-04-18T23:42:54.076Z,101564.44
2023-04-18T23:45:20.715Z,101550.13
2023-04-18T23:47:47.503Z,101553.75
2023-04-18T23:50:15.294Z,101557.53
2023-04-18T23:52:41.912Z,101560.59
2023-04-18T23:55:08.961Z,101567.69
2023-04-18T23:57:35.708Z,101575.16
